createdAt,value
2023-05-05T00:01:58.295Z,7.47
2023-05-05T00:04:43.337Z,6.72
2023-05-05T00:07:28.788Z,7.25
2023-05-05T00:10:13.499Z,6.32
2023-05-05T00:12:58.810Z,5.63
2023-05-05T00:15:45.847Z,5.53
2023-05-05T00:18:31.667Z,5.05
2023-05-05T00:21:16.593Z,7.80
2023-05-05T00:24:01.464Z,7.43
2023-05-05T00:26:46.247Z,6.15
2023-05-05T00:29:31.342Z,5.72
2023-05-05T00:32:16.499Z,5.88
2023-05-05T00:35:01.252Z,8.50
2023-05-05T00:37:46.288Z,9.25
2023-05-05T00:40:31.474Z,8.88
2023-05-05T00:43:16.334Z,7.20
2023-05-05T00:46:07.110Z,5.28
2023-05-05T00:48:52.653Z,10.60
2023-05-05T00:51:37.475Z,5.50
2023-05-05T00:54:22.860Z,7.22
2023-05-05T00:57:08.409Z,6.47
2023-05-05T00:59:54.680Z,6.35
2023-05-05T01:02:40.392Z,7.68
2023-05-05T01:05:27.686Z,8.65
2023-05-05T01:11:14.598Z,8.85
2023-05-05T01:14:28.978Z,6.80
2023-05-05T01:17:18.467Z,6.13
2023-05-05T01:20:23.582Z,9.05
2023-05-05T01:23:12.693Z,8.57
2023-05-05T01:26:21.934Z,8.60
2023-05-05T01:29:31.286Z,6.85
2023-05-05T01:32:22.116Z,6.25
2023-05-05T01:35:37.223Z,7.38
2023-05-05T01:38:28.133Z,8.85
2023-05-05T01:41:19.544Z,7.05
2023-05-05T01:44:06.129Z,7.93
2023-05-05T01:46:52.503Z,7.72
2023-05-05T01:49:38.419Z,7.00
2023-05-05T01:52:24.117Z,8.30
2023-05-05T01:55:10.898Z,6.80
2023-05-05T01:57:58.587Z,8.93
2023-05-05T02:00:44.827Z,7.82
2023-05-05T02:03:33.898Z,8.57
2023-05-05T02:06:22.083Z,6.82
2023-05-05T02:09:11.997Z,5.47
2023-05-05T02:12:00.546Z,8.18
2023-05-05T02:14:46.949Z,8.60
2023-05-05T02:17:33.620Z,7.78
2023-05-05T02:20:19.824Z,6.97
2023-05-05T02:23:08.623Z,6.00
2023-05-05T02:25:57.355Z,7.80
2023-05-05T02:28:55.022Z,7.45
2023-05-05T02:31:47.247Z,7.32
2023-05-05T02:34:38.230Z,8.25
2023-05-05T02:37:27.292Z,7.13
2023-05-05T02:40:15.310Z,8.60
2023-05-05T02:43:06.060Z,6.60
2023-05-05T02:45:52.025Z,10.38
2023-05-05T02:48:37.240Z,7.43
2023-05-05T02:51:22.095Z,8.30
2023-05-05T02:54:07.204Z,5.57
2023-05-05T02:56:54.802Z,7.95
2023-05-05T02:59:56.486Z,10.55
2023-05-05T03:02:59.203Z,11.70
2023-05-05T03:06:00.913Z,9.73
2023-05-05T03:09:08.785Z,10.95
2023-05-05T03:12:02.004Z,9.68
2023-05-05T03:14:49.184Z,7.38
2023-05-05T03:20:21.627Z,8.02
2023-05-05T03:23:07.172Z,5.93
2023-05-05T03:25:52.649Z,7.80
2023-05-05T03:28:37.691Z,8.82
2023-05-05T03:31:22.489Z,9.95
2023-05-05T03:34:08.710Z,11.85
2023-05-05T03:36:53.786Z,8.18
2023-05-05T03:39:39.165Z,7.20
2023-05-05T03:42:25.248Z,6.65
2023-05-05T03:45:10.892Z,6.70
2023-05-05T03:47:55.716Z,10.00
2023-05-05T03:50:40.546Z,8.25
2023-05-05T03:53:25.816Z,10.52
2023-05-05T03:56:10.683Z,7.25
2023-05-05T03:58:55.530Z,12.35
2023-05-05T04:01:40.239Z,11.45
2023-05-05T04:04:25.456Z,7.15
2023-05-05T04:07:11.096Z,9.88
2023-05-05T04:09:56.157Z,10.18
2023-05-05T04:12:41.242Z,10.55
2023-05-05T04:15:26.237Z,9.40
2023-05-05T04:18:11.403Z,8.18
2023-05-05T04:20:56.340Z,7.82
2023-05-05T04:23:41.263Z,7.57
2023-05-05T04:26:28.178Z,12.77
2023-05-05T04:29:13.375Z,9.23
2023-05-05T04:31:58.119Z,9.32
2023-05-05T04:34:43.755Z,8.20
2023-05-05T04:37:28.988Z,6.45
2023-05-05T04:40:13.791Z,8.63
2023-05-05T04:42:58.450Z,8.65
2023-05-05T04:45:52.848Z,7.05
2023-05-05T04:48:38.414Z,7.47
2023-05-05T04:51:23.833Z,9.90
2023-05-05T04:54:08.934Z,9.27
2023-05-05T04:56:54.491Z,7.05
2023-05-05T04:59:39.315Z,13.32
2023-05-05T05:02:24.223Z,9.02
2023-05-05T05:05:10.770Z,9.77
2023-05-05T05:07:55.767Z,6.18
2023-05-05T05:10:40.629Z,6.90
2023-05-05T05:13:25.721Z,9.85
2023-05-05T05:16:11.393Z,7.68
2023-05-05T05:18:57.017Z,8.15
2023-05-05T05:21:42.134Z,8.85
2023-05-05T05:24:27.107Z,10.15
2023-05-05T05:27:12.289Z,7.25
2023-05-05T05:29:57.369Z,9.60
2023-05-05T05:32:42.586Z,7.90
2023-05-05T05:35:27.926Z,10.00
2023-05-05T05:38:12.925Z,9.98
2023-05-05T05:40:58.668Z,8.00
2023-05-05T05:43:43.432Z,9.90
2023-05-05T05:46:28.686Z,8.35
2023-05-05T05:49:13.927Z,6.30
2023-05-05T05:51:58.682Z,7.20
2023-05-05T05:54:43.462Z,6.60
2023-05-05T05:57:28.450Z,11.90
2023-05-05T06:00:14.085Z,7.30
2023-05-05T06:02:59.037Z,8.82
2023-05-05T06:05:47.270Z,9.35
2023-05-05T06:08:34.301Z,7.70
2023-05-05T06:14:05.549Z,7.07
2023-05-05T06:16:52.093Z,8.10
2023-05-05T06:19:39.667Z,9.68
2023-05-05T06:22:25.186Z,10.55
2023-05-05T06:25:11.158Z,8.85
2023-05-05T06:27:56.428Z,7.82
2023-05-05T06:30:42.407Z,7.63
2023-05-05T06:33:27.671Z,7.10
2023-05-05T06:36:12.592Z,7.35
2023-05-05T06:38:57.257Z,7.88
2023-05-05T06:41:42.145Z,6.88
2023-05-05T06:44:27.027Z,8.55
2023-05-05T06:47:11.933Z,6.13
2023-05-05T06:49:56.692Z,7.68
2023-05-05T06:52:43.661Z,8.35
2023-05-05T06:55:29.170Z,7.55
2023-05-05T06:58:14.122Z,5.88
2023-05-05T07:00:59.090Z,7.80
2023-05-05T07:03:44.632Z,7.05
2023-05-05T07:06:29.583Z,7.93
2023-05-05T07:09:16.894Z,9.77
2023-05-05T07:12:03.930Z,7.20
2023-05-05T07:14:49.050Z,7.47
2023-05-05T07:17:35.084Z,8.07
2023-05-05T07:20:19.846Z,7.15
2023-05-05T07:23:04.965Z,8.95
2023-05-05T07:25:50.943Z,6.75
2023-05-05T07:28:36.051Z,8.13
2023-05-05T07:31:21.905Z,9.57
2023-05-05T07:34:07.500Z,8.52
2023-05-05T07:36:52.499Z,8.57
2023-05-05T07:39:37.481Z,7.93
2023-05-05T07:42:22.383Z,9.70
2023-05-05T07:45:09.042Z,9.63
2023-05-05T07:47:54.902Z,6.25
2023-05-05T07:50:39.838Z,9.63
2023-05-05T07:53:24.595Z,8.20
2023-05-05T07:56:09.578Z,10.95
2023-05-05T07:58:54.879Z,11.35
2023-05-05T08:01:40.107Z,6.82
2023-05-05T08:04:25.355Z,7.53
2023-05-05T08:07:10.820Z,6.03
2023-05-05T08:09:56.634Z,9.45
2023-05-05T08:12:41.746Z,9.10
2023-05-05T08:15:26.572Z,6.93
2023-05-05T08:18:11.605Z,10.45
2023-05-05T08:20:56.869Z,8.57
2023-05-05T08:23:41.743Z,7.47
2023-05-05T08:26:26.523Z,7.63
2023-05-05T08:29:11.546Z,6.07
2023-05-05T08:31:56.495Z,7.65
2023-05-05T08:34:41.694Z,7.65
2023-05-05T08:37:26.881Z,9.10
2023-05-05T08:40:15.648Z,7.90
2023-05-05T08:43:01.716Z,7.40
2023-05-05T08:45:47.146Z,6.70
2023-05-05T08:48:33.630Z,8.82
2023-05-05T08:51:19.706Z,6.43
2023-05-05T08:54:06.896Z,14.43
2023-05-05T08:56:53.479Z,8.85
2023-05-05T08:59:38.989Z,7.47
2023-05-05T09:02:28.320Z,6.20
2023-05-05T09:05:14.011Z,8.57
2023-05-05T09:07:58.936Z,7.97
2023-05-05T09:10:44.568Z,7.57
2023-05-05T09:13:31.307Z,7.03
2023-05-05T09:16:16.284Z,8.88
2023-05-05T09:19:03.309Z,9.68
2023-05-05T09:21:51.110Z,7.75
2023-05-05T09:24:36.054Z,7.35
2023-05-05T09:27:22.904Z,9.85
2023-05-05T09:30:16.582Z,9.80
2023-05-05T09:33:03.215Z,8.15
2023-05-05T09:35:51.472Z,9.10
2023-05-05T09:38:37.124Z,9.05
2023-05-05T09:41:43.640Z,8.75
2023-05-05T09:44:39.916Z,9.02
2023-05-05T09:47:35.064Z,6.75
2023-05-05T09:50:22.041Z,9.48
2023-05-05T09:53:07.873Z,6.82
2023-05-05T09:55:54.168Z,12.27
2023-05-05T09:58:39.892Z,5.80
2023-05-05T10:01:25.146Z,6.80
2023-05-05T10:04:30.128Z,9.82
2023-05-05T10:07:24.879Z,7.40
2023-05-05T10:10:18.396Z,9.85
2023-05-05T10:13:03.348Z,6.82
2023-05-05T10:15:51.847Z,6.53
2023-05-05T10:18:41.326Z,8.63
2023-05-05T10:21:26.738Z,7.72
2023-05-05T10:24:34.163Z,11.77
2023-05-05T10:27:22.998Z,8.00
2023-05-05T10:30:13.608Z,8.25
2023-05-05T10:33:32.252Z,6.88
2023-05-05T10:36:19.860Z,8.13
2023-05-05T10:39:10.551Z,7.60
2023-05-05T10:41:59.395Z,7.75
2023-05-05T10:44:44.471Z,7.28
2023-05-05T10:47:30.593Z,5.53
2023-05-05T10:50:30.856Z,9.73
2023-05-05T10:53:23.948Z,8.73
2023-05-05T10:59:37.312Z,7.40
2023-05-05T11:05:21.652Z,6.20
2023-05-05T11:08:26.124Z,11.23
2023-05-05T11:11:13.450Z,9.13
2023-05-05T11:14:20.424Z,8.13
2023-05-05T11:17:05.712Z,10.10
2023-05-05T11:19:52.660Z,10.38
2023-05-05T11:25:45.547Z,10.73
2023-05-05T11:28:32.733Z,8.77
2023-05-05T11:31:19.169Z,10.45
2023-05-05T11:34:28.144Z,7.10
2023-05-05T11:37:15.613Z,8.63
2023-05-05T11:40:07.452Z,7.60
2023-05-05T11:43:05.027Z,9.07
2023-05-05T11:46:09.040Z,7.10
2023-05-05T11:48:53.950Z,6.50
2023-05-05T11:51:39.144Z,5.75
2023-05-05T11:54:25.566Z,7.05
2023-05-05T11:57:11.758Z,5.18
2023-05-05T12:00:01.713Z,7.78
2023-05-05T12:02:46.925Z,5.63
2023-05-05T12:05:33.242Z,8.48
2023-05-05T12:08:20.173Z,8.68
2023-05-05T12:11:07.629Z,5.57
2023-05-05T12:14:08.382Z,11.70
2023-05-05T12:17:04.219Z,9.98
2023-05-05T12:19:54.430Z,8.07
2023-05-05T12:22:39.856Z,8.10
2023-05-05T12:25:26.839Z,8.23
2023-05-05T12:28:12.026Z,6.45
2023-05-05T12:30:58.698Z,6.90
2023-05-05T12:33:44.559Z,6.63
2023-05-05T12:36:30.729Z,8.68
2023-05-05T12:39:16.961Z,6.10
2023-05-05T12:42:03.288Z,7.03
2023-05-05T12:44:49.093Z,5.68
2023-05-05T12:47:35.515Z,7.90
2023-05-05T12:50:36.524Z,7.85
2023-05-05T12:53:23.269Z,6.70
2023-05-05T12:56:34.673Z,10.07
2023-05-05T12:59:22.811Z,7.80
2023-05-05T13:02:08.246Z,6.93
2023-05-05T13:04:54.286Z,10.23
2023-05-05T13:07:51.932Z,6.32
2023-05-05T13:10:37.165Z,6.05
2023-05-05T13:13:22.702Z,6.35
2023-05-05T13:16:07.501Z,6.85
2023-05-05T13:18:53.615Z,7.65
2023-05-05T13:21:38.441Z,11.32
2023-05-05T13:24:38.057Z,7.20
2023-05-05T13:27:28.084Z,7.60
2023-05-05T13:30:13.544Z,6.45
2023-05-05T13:32:59.420Z,6.07
2023-05-05T13:35:44.448Z,7.50
2023-05-05T13:38:29.547Z,9.60
2023-05-05T13:41:14.887Z,8.77
2023-05-05T13:43:59.628Z,9.35
2023-05-05T13:46:44.909Z,5.10
2023-05-05T13:49:29.942Z,7.22
2023-05-05T13:52:14.895Z,6.57
2023-05-05T13:55:00.594Z,8.40
2023-05-05T13:57:46.327Z,11.40
2023-05-05T14:00:31.583Z,6.25
2023-05-05T14:03:16.809Z,7.15
2023-05-05T14:06:01.976Z,6.57
2023-05-05T14:08:46.969Z,8.48
2023-05-05T14:11:31.795Z,5.47
2023-05-05T14:14:18.876Z,6.65
2023-05-05T14:17:03.902Z,6.45
2023-05-05T14:19:48.662Z,5.95
2023-05-05T14:22:33.863Z,6.45
2023-05-05T14:25:18.990Z,7.22
2023-05-05T14:28:04.548Z,8.20
2023-05-05T14:30:49.379Z,6.05
2023-05-05T14:33:34.171Z,5.93
2023-05-05T14:36:19.454Z,6.43
2023-05-05T14:39:04.894Z,6.65
2023-05-05T14:41:50.008Z,7.75
2023-05-05T14:44:34.870Z,5.57
2023-05-05T14:47:19.967Z,5.90
2023-05-05T14:50:07.431Z,4.25
2023-05-05T14:52:52.394Z,5.35
2023-05-05T14:55:37.430Z,9.85
2023-05-05T14:58:25.828Z,10.48
2023-05-05T15:01:11.342Z,9.27
2023-05-05T15:03:57.064Z,6.70
2023-05-05T15:06:42.114Z,6.60
2023-05-05T15:09:26.959Z,5.70
2023-05-05T15:12:11.776Z,8.38
2023-05-05T15:14:56.726Z,4.93
2023-05-05T15:17:41.845Z,5.80
2023-05-05T15:20:27.889Z,3.78
2023-05-05T15:23:12.946Z,5.68
2023-05-05T15:25:57.882Z,5.45
2023-05-05T15:28:42.892Z,6.97
2023-05-05T15:31:28.088Z,5.68
2023-05-05T15:34:13.266Z,6.20
2023-05-05T15:36:59.583Z,7.82
2023-05-05T15:39:44.436Z,6.95
2023-05-05T15:42:32.236Z,8.93
2023-05-05T15:45:17.004Z,6.72
2023-05-05T15:48:02.282Z,9.52
2023-05-05T15:50:47.351Z,5.97
2023-05-05T15:53:32.298Z,8.75
2023-05-05T15:56:17.298Z,7.93
2023-05-05T15:59:03.268Z,12.27
2023-05-05T16:01:49.627Z,8.15
2023-05-05T16:04:34.430Z,7.15
2023-05-05T16:07:19.624Z,6.68
2023-05-05T16:10:05.072Z,7.93
2023-05-05T16:12:52.015Z,8.15
2023-05-05T16:15:37.307Z,7.88
2023-05-05T16:18:22.368Z,6.93
2023-05-05T16:21:07.849Z,6.10
2023-05-05T16:23:53.027Z,6.43
2023-05-05T16:26:38.722Z,6.40
2023-05-05T16:29:23.987Z,5.20
2023-05-05T16:32:09.405Z,8.55
2023-05-05T16:34:54.997Z,7.70
2023-05-05T16:37:42.420Z,5.75
2023-05-05T16:40:27.266Z,5.32
2023-05-05T16:43:12.730Z,7.18
2023-05-05T16:45:57.583Z,7.70
2023-05-05T16:48:42.438Z,9.05
2023-05-05T16:51:28.888Z,6.18
2023-05-05T16:56:58.797Z,7.45
2023-05-05T16:59:44.346Z,5.88
2023-05-05T17:02:31.248Z,8.32
2023-05-05T17:05:18.091Z,7.78
2023-05-05T17:08:03.776Z,6.22
2023-05-05T17:10:49.329Z,11.27
2023-05-05T17:13:34.158Z,5.32
2023-05-05T17:16:19.097Z,9.50
2023-05-05T17:19:04.204Z,7.40
2023-05-05T17:21:49.340Z,7.10
2023-05-05T17:24:34.686Z,4.82
2023-05-05T17:27:20.009Z,9.10
2023-05-05T17:30:05.490Z,6.13
2023-05-05T17:32:50.313Z,12.85
2023-05-05T17:35:35.283Z,14.63
2023-05-05T17:38:20.613Z,8.30
2023-05-05T17:41:06.286Z,8.32
2023-05-05T17:43:51.755Z,8.40
2023-05-05T17:46:37.801Z,9.10
2023-05-05T17:49:25.510Z,7.47
2023-05-05T17:52:11.109Z,7.70
2023-05-05T17:54:56.452Z,6.75
2023-05-05T17:57:41.786Z,7.68
2023-05-05T18:00:26.543Z,8.68
2023-05-05T18:03:11.654Z,9.43
2023-05-05T18:05:56.872Z,12.00
2023-05-05T18:08:44.473Z,8.38
2023-05-05T18:11:31.872Z,8.85
2023-05-05T18:14:19.898Z,12.38
2023-05-05T18:17:05.510Z,9.00
2023-05-05T18:19:50.573Z,12.38
2023-05-05T18:22:37.070Z,9.70
2023-05-05T18:25:22.145Z,12.15
2023-05-05T18:28:08.872Z,8.32
2023-05-05T18:30:56.558Z,12.63
2023-05-05T18:33:46.766Z,20.10
2023-05-05T18:36:34.027Z,11.93
2023-05-05T18:39:21.407Z,13.80
2023-05-05T18:42:08.006Z,13.68
2023-05-05T18:44:55.427Z,13.13
2023-05-05T18:47:41.326Z,12.02
2023-05-05T18:50:26.965Z,13.35
2023-05-05T18:53:14.980Z,16.38
2023-05-05T18:56:03.254Z,12.93
2023-05-05T18:58:48.048Z,10.93
2023-05-05T19:01:37.067Z,12.45
2023-05-05T19:04:30.770Z,13.77
2023-05-05T19:07:31.289Z,15.60
2023-05-05T19:10:20.485Z,12.52
2023-05-05T19:13:07.693Z,13.95
2023-05-05T19:18:40.376Z,13.20
2023-05-05T19:21:27.544Z,16.48
2023-05-05T19:24:14.800Z,16.45
2023-05-05T19:27:03.512Z,13.63
2023-05-05T19:29:57.085Z,13.02
2023-05-05T19:32:42.530Z,12.27
2023-05-05T19:35:29.262Z,14.82
2023-05-05T19:38:14.880Z,12.77
2023-05-05T19:40:59.755Z,16.23
2023-05-05T19:43:50.842Z,11.93
2023-05-05T19:46:38.030Z,12.30
2023-05-05T19:49:23.487Z,12.38
2023-05-05T19:52:08.667Z,13.63
2023-05-05T19:54:53.584Z,12.38
2023-05-05T19:57:43.151Z,12.00
2023-05-05T20:00:30.906Z,13.65
2023-05-05T20:03:22.624Z,13.68
2023-05-05T20:06:07.709Z,13.00
2023-05-05T20:08:56.901Z,15.40
2023-05-05T20:11:42.291Z,13.60
2023-05-05T20:14:29.220Z,16.88
2023-05-05T20:17:17.270Z,14.30
2023-05-05T20:20:02.117Z,14.82
2023-05-05T20:22:49.555Z,16.13
2023-05-05T20:25:34.476Z,13.38
2023-05-05T20:28:20.583Z,14.40
2023-05-05T20:31:06.663Z,13.27
2023-05-05T20:33:51.532Z,14.82
2023-05-05T20:36:37.544Z,13.57
2023-05-05T20:39:23.963Z,17.35
2023-05-05T20:42:11.036Z,10.43
2023-05-05T20:44:56.232Z,14.25
2023-05-05T20:47:42.171Z,12.75
2023-05-05T20:50:28.399Z,11.48
2023-05-05T20:53:13.788Z,11.98
2023-05-05T20:55:58.811Z,13.48
2023-05-05T20:58:45.156Z,11.27
2023-05-05T21:01:31.169Z,11.70
2023-05-05T21:04:18.568Z,11.15
2023-05-05T21:07:03.617Z,12.35
2023-05-05T21:09:48.512Z,13.20
2023-05-05T21:12:34.055Z,11.32
2023-05-05T21:15:20.822Z,11.02
2023-05-05T21:18:06.197Z,10.05
2023-05-05T21:20:51.455Z,13.20
2023-05-05T21:23:36.465Z,10.20
2023-05-05T21:26:21.693Z,11.35
2023-05-05T21:29:06.883Z,11.68
2023-05-05T21:31:52.061Z,10.93
2023-05-05T21:34:38.383Z,10.73
2023-05-05T21:37:23.297Z,11.57
2023-05-05T21:40:14.111Z,9.80
2023-05-05T21:43:00.508Z,17.52
2023-05-05T21:45:47.079Z,11.35
2023-05-05T21:48:32.523Z,10.25
2023-05-05T21:51:17.947Z,12.40
2023-05-05T21:54:02.984Z,13.68
2023-05-05T21:56:49.503Z,10.45
2023-05-05T21:59:34.651Z,8.70
2023-05-05T22:02:19.944Z,9.63
2023-05-05T22:05:05.647Z,9.93
2023-05-05T22:07:50.535Z,10.63
2023-05-05T22:10:35.644Z,9.23
2023-05-05T22:13:20.798Z,10.00
2023-05-05T22:16:10.998Z,10.70
2023-05-05T22:18:56.024Z,8.80
2023-05-05T22:21:42.573Z,10.75
2023-05-05T22:24:28.256Z,10.98
2023-05-05T22:27:13.287Z,13.68
2023-05-05T22:29:58.564Z,8.95
2023-05-05T22:32:43.444Z,8.70
2023-05-05T22:35:28.413Z,10.00
2023-05-05T22:38:13.267Z,8.00
2023-05-05T22:40:58.122Z,9.07
2023-05-05T22:43:42.931Z,8.60
2023-05-05T22:46:27.931Z,9.68
2023-05-05T22:49:13.042Z,8.70
2023-05-05T22:51:58.590Z,8.98
2023-05-05T22:54:43.734Z,9.88
2023-05-05T22:57:28.669Z,12.45
2023-05-05T23:00:14.476Z,16.02
2023-05-05T23:02:59.651Z,8.65
2023-05-05T23:05:44.775Z,9.77
2023-05-05T23:08:30.055Z,11.25
2023-05-05T23:11:16.891Z,11.02
2023-05-05T23:14:01.728Z,14.07
2023-05-05T23:16:47.082Z,9.38
2023-05-05T23:19:32.600Z,10.60
2023-05-05T23:22:18.045Z,10.65
2023-05-05T23:25:03.154Z,11.30
2023-05-05T23:27:48.931Z,9.80
2023-05-05T23:30:34.165Z,13.43
2023-05-05T23:33:19.370Z,9.82
2023-05-05T23:36:05.016Z,14.70
2023-05-05T23:38:50.237Z,13.23
2023-05-05T23:41:35.205Z,13.65
2023-05-05T23:44:20.336Z,13.13
2023-05-05T23:47:05.252Z,11.05
2023-05-05T23:49:51.476Z,10.52
2023-05-05T23:52:36.620Z,8.98
2023-05-05T23:55:21.660Z,10.38
2023-05-05T23:58:06.948Z,8.23
